createdAt,value
2023-01-23T00:00:59.442Z,0
2023-01-23T00:06:05.525Z,0
2023-01-23T00:11:11.622Z,0
2023-01-23T00:16:17.739Z,0
2023-01-23T00:21:23.788Z,0
2023-01-23T00:26:29.955Z,0
2023-01-23T00:31:35.972Z,0
2023-01-23T00:36:42.089Z,0
2023-01-23T00:41:48.156Z,0
2023-01-23T00:46:54.240Z,0
2023-01-23T00:52:00.374Z,0
2023-01-23T00:57:06.424Z,0
2023-01-23T01:02:12.614Z,0
2023-01-23T01:12:24.857Z,0
2023-01-23T01:17:30.964Z,0
2023-01-23T01:22:37.117Z,0
2023-01-23T01:27:43.265Z,0
2023-01-23T01:32:49.433Z,0
2023-01-23T01:37:55.569Z,0
2023-01-23T01:43:01.807Z,0
2023-01-23T01:48:07.864Z,0
2023-01-23T01:53:14.020Z,0
2023-01-23T02:03:26.325Z,0
2023-01-23T02:08:32.558Z,0
2023-01-23T02:13:38.733Z,0
2023-01-23T02:18:44.992Z,0
2023-01-23T02:23:51.254Z,0
2023-01-23T02:28:57.538Z,0
2023-01-23T02:34:03.780Z,0
2023-01-23T02:39:10.086Z,0
2023-01-23T02:44:16.322Z,0
2023-01-23T02:49:21.549Z,0
2023-01-23T02:54:27.661Z,0
2023-01-23T02:59:33.807Z,0
2023-01-23T03:04:39.825Z,0
2023-01-23T03:09:45.911Z,0
2023-01-23T03:14:51.992Z,0
2023-01-23T03:19:58.087Z,0
2023-01-23T03:25:04.233Z,0
2023-01-23T03:30:10.265Z,0
2023-01-23T03:35:16.348Z,0
2023-01-23T03:40:22.444Z,0
2023-01-23T03:45:28.534Z,0
2023-01-23T03:50:34.642Z,0
2023-01-23T03:55:40.712Z,0
2023-01-23T04:00:46.791Z,0
2023-01-23T04:05:52.902Z,0
2023-01-23T04:10:58.984Z,0
2023-01-23T04:16:05.087Z,0
2023-01-23T04:21:11.152Z,0
2023-01-23T04:26:17.239Z,0
2023-01-23T04:31:23.328Z,0
2023-01-23T04:36:29.418Z,0
2023-01-23T04:41:35.507Z,0
2023-01-23T04:46:41.599Z,0
2023-01-23T04:51:47.694Z,0
2023-01-23T04:56:53.850Z,0
2023-01-23T05:02:00.008Z,0
2023-01-23T05:07:06.143Z,0
2023-01-23T05:12:12.307Z,0
2023-01-23T05:17:18.445Z,0
2023-01-23T05:22:24.595Z,136
2023-01-23T05:32:36.897Z,136
2023-01-23T05:37:43.059Z,0
2023-01-23T05:42:49.201Z,0
2023-01-23T05:47:55.355Z,0
2023-01-23T05:53:01.529Z,0
2023-01-23T06:03:13.989Z,0
2023-01-23T06:08:20.189Z,0
2023-01-23T06:13:26.523Z,0
2023-01-23T06:18:32.709Z,0
2023-01-23T06:23:39.009Z,0
2023-01-23T06:28:45.238Z,136
2023-01-23T06:33:51.521Z,136
2023-01-23T06:38:57.774Z,136
2023-01-23T06:44:04.025Z,136
2023-01-23T06:49:10.386Z,136
2023-01-23T06:54:16.559Z,136
2023-01-23T06:59:22.843Z,140
2023-01-23T07:04:29.204Z,140
2023-01-23T07:09:35.579Z,144
2023-01-23T07:14:42.035Z,144
2023-01-23T07:19:48.501Z,152
2023-01-23T07:24:55.017Z,152
2023-01-23T07:30:01.454Z,20
2023-01-23T07:35:07.910Z,24
2023-01-23T07:40:14.506Z,32
2023-01-23T07:45:20.935Z,32
2023-01-23T07:50:27.410Z,40
2023-01-23T07:55:33.806Z,44
2023-01-23T08:00:39.209Z,188
2023-01-23T08:05:45.286Z,184
2023-01-23T08:10:50.416Z,184
2023-01-23T08:15:56.471Z,196
2023-01-23T08:21:02.558Z,196
2023-01-23T08:31:14.737Z,196
2023-01-23T08:36:20.845Z,204
2023-01-23T08:41:26.936Z,64
2023-01-23T08:46:33.003Z,76
2023-01-23T08:51:39.235Z,76
2023-01-23T08:56:45.202Z,68
2023-01-23T09:01:51.302Z,216
2023-01-23T09:06:57.373Z,220
2023-01-23T09:12:03.576Z,240
2023-01-23T09:17:09.528Z,224
2023-01-23T09:22:15.676Z,224
2023-01-23T09:27:21.704Z,220
2023-01-23T09:32:27.799Z,220
2023-01-23T10:32:33.480Z,556
2023-01-23T10:37:40.614Z,564
2023-01-23T10:42:47.629Z,564
2023-01-23T10:47:54.630Z,564
2023-01-23T10:53:01.777Z,572
2023-01-23T10:58:08.635Z,568
2023-01-23T11:03:15.635Z,572
2023-01-23T11:08:22.641Z,564
2023-01-23T11:13:29.648Z,568
2023-01-23T11:18:36.691Z,572
2023-01-23T11:23:43.645Z,568
2023-01-23T11:28:50.657Z,576
2023-01-23T11:33:57.671Z,572
2023-01-23T11:39:04.681Z,576
2023-01-23T11:44:11.673Z,568
2023-01-23T11:49:18.683Z,572
2023-01-23T11:54:24.516Z,568
2023-01-23T11:59:30.777Z,572
2023-01-23T12:04:36.853Z,572
2023-01-23T12:09:42.198Z,584
2023-01-23T12:14:48.267Z,576
2023-01-23T12:19:54.264Z,576
2023-01-23T12:25:00.637Z,588
2023-01-23T12:30:06.579Z,592
2023-01-23T12:35:12.907Z,588
2023-01-23T12:40:19.090Z,592
2023-01-23T12:45:25.183Z,588
2023-01-23T12:50:31.360Z,588
2023-01-23T12:55:37.483Z,588
2023-01-23T13:00:42.583Z,580
2023-01-23T13:05:48.787Z,576
2023-01-23T13:10:53.687Z,576
2023-01-23T13:15:59.959Z,572
2023-01-23T13:21:06.050Z,568
2023-01-23T13:26:12.139Z,564
2023-01-23T13:31:18.267Z,564
2023-01-23T13:36:24.290Z,560
2023-01-23T13:41:30.457Z,560
2023-01-23T13:46:36.506Z,560
2023-01-23T13:51:42.594Z,556
2023-01-23T13:56:48.679Z,556
2023-01-23T14:01:54.582Z,552
2023-01-23T14:07:00.871Z,548
2023-01-23T14:12:06.935Z,548
2023-01-23T14:17:13.067Z,544
2023-01-23T14:22:19.223Z,540
2023-01-23T14:27:25.248Z,540
2023-01-23T14:32:31.323Z,536
2023-01-23T14:37:37.390Z,532
2023-01-23T14:42:42.511Z,532
2023-01-23T14:47:48.568Z,532
2023-01-23T14:57:59.841Z,524
2023-01-23T15:03:04.781Z,524
2023-01-23T15:08:11.009Z,524
2023-01-23T15:13:17.101Z,520
2023-01-23T15:18:22.195Z,516
2023-01-23T15:28:34.376Z,516
2023-01-23T15:33:40.551Z,516
2023-01-23T15:38:46.558Z,520
2023-01-23T15:43:52.702Z,516
2023-01-23T15:48:58.775Z,516
2023-01-23T15:54:04.836Z,516
2023-01-23T15:59:10.737Z,516
2023-01-23T16:04:17.015Z,512
2023-01-23T16:09:23.047Z,516
2023-01-23T16:14:29.245Z,516
2023-01-23T16:19:35.281Z,512
2023-01-23T16:24:41.396Z,512
2023-01-23T16:29:47.375Z,512
2023-01-23T16:34:53.573Z,516
2023-01-23T16:39:59.664Z,516
2023-01-23T16:45:04.718Z,516
2023-01-23T16:50:10.800Z,516
2023-01-23T16:55:16.738Z,516
2023-01-23T17:00:23.017Z,516
2023-01-23T17:05:29.099Z,516
2023-01-23T17:10:35.178Z,516
2023-01-23T17:15:40.312Z,516
2023-01-23T17:20:46.437Z,516
2023-01-23T17:25:52.485Z,516
2023-01-23T17:30:58.589Z,516
2023-01-23T17:36:03.687Z,520
2023-01-23T17:41:09.777Z,520
2023-01-23T17:46:14.876Z,516
2023-01-23T17:51:20.965Z,0
2023-01-23T17:56:27.067Z,0
2023-01-23T18:01:33.227Z,0
2023-01-23T18:06:39.235Z,0
2023-01-23T18:11:45.222Z,0
2023-01-23T18:16:50.382Z,0
2023-01-23T18:21:56.521Z,0
2023-01-23T18:27:02.646Z,0
2023-01-23T18:32:08.533Z,0
2023-01-23T18:37:14.801Z,0
2023-01-23T18:42:20.833Z,0
2023-01-23T18:47:26.797Z,0
2023-01-23T18:52:32.968Z,0
2023-01-23T18:57:39.147Z,0
2023-01-23T19:02:45.243Z,0
2023-01-23T19:07:51.243Z,0
2023-01-23T19:12:57.382Z,0
2023-01-23T19:18:03.544Z,0
2023-01-23T19:23:09.432Z,0
2023-01-23T19:28:14.652Z,0
2023-01-23T19:33:20.615Z,0
2023-01-23T19:38:26.856Z,0
2023-01-23T19:43:32.798Z,0
2023-01-23T19:48:38.069Z,0
2023-01-23T19:53:44.057Z,0
2023-01-23T19:58:49.296Z,0
2023-01-23T20:03:55.404Z,0
2023-01-23T20:09:01.441Z,0
2023-01-23T20:14:07.385Z,0
2023-01-23T20:19:13.683Z,0
2023-01-23T20:24:19.671Z,0
2023-01-23T20:29:25.693Z,0
2023-01-23T20:34:31.916Z,0
2023-01-23T20:39:37.953Z,0
2023-01-23T20:44:44.084Z,0
2023-01-23T20:49:50.129Z,0
2023-01-23T20:54:56.296Z,0
2023-01-23T21:00:02.506Z,0
2023-01-23T21:05:08.431Z,0
2023-01-23T21:10:14.486Z,0
2023-01-23T21:15:20.520Z,0
2023-01-23T21:20:26.671Z,0
2023-01-23T21:25:32.820Z,0
2023-01-23T21:30:38.881Z,0
2023-01-23T21:35:44.966Z,0
2023-01-23T21:40:50.959Z,0
2023-01-23T21:45:57.111Z,0
2023-01-23T21:51:02.090Z,0
2023-01-23T21:56:08.294Z,0
2023-01-23T22:01:14.305Z,0
2023-01-23T22:06:20.368Z,0
2023-01-23T22:11:26.585Z,0
2023-01-23T22:16:32.717Z,0
2023-01-23T22:21:37.654Z,0
2023-01-23T22:26:43.888Z,0
2023-01-23T22:31:49.061Z,0
2023-01-23T22:36:55.071Z,0
2023-01-23T22:42:00.201Z,0
2023-01-23T22:47:06.126Z,0
2023-01-23T22:52:12.368Z,0
2023-01-23T22:57:18.513Z,0
2023-01-23T23:02:24.589Z,0
2023-01-23T23:07:30.656Z,0
2023-01-23T23:12:36.797Z,0
2023-01-23T23:17:42.825Z,0
2023-01-23T23:22:48.757Z,0
2023-01-23T23:27:54.982Z,0
2023-01-23T23:33:01.145Z,0
2023-01-23T23:38:07.251Z,0
2023-01-23T23:43:13.271Z,0
2023-01-23T23:48:19.404Z,0
2023-01-23T23:53:25.294Z,0
2023-01-23T23:58:31.561Z,0
